Terminal Aerodrome Forecast
Issued by NWS Cleveland, OH

Home | Current Version | Previous Version | Graphics & Text | Print | Product List | Glossary On
Versions: 1 2 3 4 5 6 7 8 9 10 11 12 13 14 15 16 17 18 19 20 21 22 23 24 25 26 27
007
FTUS41 KCLE 130214 AAB
TAFCLE
TAF AMD
KCLE 130214Z 1302/1406 32017G25KT 4SM -SHSN BLSN OVC040
     FM130300 32015G25KT 2SM -SHSN BLSN BKN035
      TEMPO 1303/1305 3/4SM -SHSN BLSN OVC018
     FM130500 30015G22KT 6SM -SHSN BLSN BKN035
     FM131100 30015G25KT 3SM -SHSN OVC025
     FM132200 30010KT 6SM -SHSN OVC035=

USA.gov is the U.S. government's official web portal to all federal, state and local government web resources and services.